Terminal Aerodrome Forecast
Issued by NWS

Home | Current Version | Previous Version | Text Only | Print | Product List | Glossary On
Versions: 1 2 3 4 5 6 7 8 9 10 11 12 13 14 15 16 17 18
000
FTAK31 PAJN 201131
TAFAJN
TAF
PAJN 201131Z 2012/2112 VRB04KT P6SM FEW004 BKN035 OVC050
      TEMPO 2012/2016 3SM -SHSN BR SCT004 BKN025 OVC035
     FM202100 07006KT P6SM SCT035 BKN060 WS020/06020KT
     FM210600 09008G15KT P6SM SKC WS010/06030KT=

USA.gov is the U.S. government's official web portal to all federal, state and local government web resources and services.